Etusivu
METAR-TAF:

METAR-TAF

Lentoasemat :

South Big Horn County Airport

Greybull, Wyoming, Yhdysvallat

Leveyspiiri: 44-30-57N, Pituuspiiri: 108-04-33W, korkeus merenpinnasta: 1199 m

Tämänhetkinen sää

Tämä raportti tehtiin 48 minuuttia sitten, kello 08.53 UTC
Tuuli 3 kn lounaasta
Lämpötila -2°C
Kosteus 80%
Ilmanpaine 1014 hPa
Näkyvyys: 16.1 km
Pilvistä 9000 ft:n korkeudessa

METAR: KGEY 130853Z AUTO 23003KT 10SM OVC090 M02/M05 A2993 RMK AO2 SLP173 T10171050 52015

Aika: 02:41 (09:41 UTC)


TAF: puuttuu

Säähavainnot ja -ennusteet yli 4000 lentoasemalta (METAR- ja TAF-raportit).

Käytössä olevat sääasemat on merkitty karttaan keltaisilla ja punaisilla pisteillä.

Aseta hiiri pisteen päälle nähdäksesi sääaseman nimen.

Klikkaa sitten nähdäksesi säähavainnot ja -ennusteet.

Kartan vaihtaminen: klikkaa mustalla rastilla varustettuja vihreitä pisteitä, niin voit zoomata sisään; viivalla varustettua vihreää pistettä, niin voit zoomata ulos tai vihreitä nuolia, niin pääset viereisille kartoille.


METAR-TAF: